Time;durP1;ratioP1;P1;durP2;ratioP2;P2;SDS_P1;SDS_P2;PMS_P1;PMS_P2;Temp;Humidity;BMP_temperature;BMP_pressure;BME280_temperature;BME280_humidity;BME280_pressure;Samples;Min_cycle;Max_cycle;Signal;HPM_P1;HPM_P2
2021/09/23 00:00:02;;;;;;;;;21.75;21.25;;;;;21.88;41.38;101888.84;5078571;27;45692;-55
2021/09/23 00:02:47;;;;;;;;;30.00;25.00;;;;;21.88;41.33;101888.84;5078857;28;45447;-52
2021/09/23 00:05:18;;;;;;;;;26.25;23.50;;;;;21.88;41.67;101881.75;5078216;27;45334;-47
2021/09/23 00:07:46;;;;;;;;;24.00;22.50;;;;;21.88;41.38;101873.00;5078458;27;45456;-49
2021/09/23 00:10:16;;;;;;;;;27.75;23.50;;;;;21.87;41.37;101858.09;5078563;27;45373;-48
2021/09/23 00:12:41;;;;;;;;;25.25;21.25;;;;;21.86;41.38;101857.25;5078494;27;45350;-46
2021/09/23 00:15:08;;;;;;;;;25.00;22.00;;;;;21.86;41.45;101857.25;5078310;27;45715;-50
2021/09/23 00:17:33;;;;;;;;;14.50;14.50;;;;;21.86;41.71;101857.25;5078283;27;45382;-50
2021/09/23 00:19:59;;;;;;;;;26.50;21.00;;;;;21.86;41.68;101851.97;5078479;27;45450;-46
2021/09/23 00:22:24;;;;;;;;;25.50;23.25;;;;;21.85;41.53;101855.53;5078482;27;45474;-46
2021/09/23 00:24:50;;;;;;;;;20.50;19.00;;;;;21.86;41.83;101851.97;5078192;27;45373;-46
2021/09/23 00:27:15;;;;;;;;;11.50;9.00;;;;;21.86;41.73;101856.38;5078109;27;45370;-47
2021/09/23 00:29:41;;;;;;;;;20.50;20.00;;;;;21.85;41.49;101863.44;5078495;27;45429;-47
2021/09/23 00:32:07;;;;;;;;;20.00;18.00;;;;;21.86;41.52;101856.38;5078670;27;45320;-47
2021/09/23 00:34:32;;;;;;;;;21.00;18.00;;;;;21.86;41.66;101859.00;5078066;27;45375;-48
2021/09/23 00:36:58;;;;;;;;;22.75;20.50;;;;;21.83;41.29;101851.25;5077987;27;45212;-46
2021/09/23 00:39:23;;;;;;;;;20.25;19.00;;;;;21.85;41.74;101857.28;5078075;27;45299;-46
2021/09/23 00:41:50;;;;;;;;;21.50;17.75;;;;;21.84;41.75;101855.56;5094041;27;45295;-47
2021/09/23 00:44:18;;;;;;;;;17.25;17.25;;;;;21.85;41.36;101844.09;5077857;27;45433;-47
2021/09/23 00:46:45;;;;;;;;;19.50;19.50;;;;;21.84;41.49;101843.25;5077977;27;45315;-46
2021/09/23 00:49:11;;;;;;;;;18.00;17.00;;;;;21.83;41.66;101849.44;5078342;27;45354;-56
2021/09/23 00:51:37;;;;;;;;;17.50;16.00;;;;;21.84;41.72;101847.66;5078041;27;45551;-47
2021/09/23 00:54:03;;;;;;;;;16.75;14.75;;;;;21.83;41.73;101846.81;5077776;27;45578;-55
2021/09/23 00:56:28;;;;;;;;;17.00;14.75;;;;;21.83;41.66;101852.09;5076614;28;45282;-48
2021/09/23 00:58:54;;;;;;;;;19.25;15.00;;;;;21.83;41.22;101838.91;5077864;27;45236;-47
2021/09/23 01:01:19;;;;;;;;;18.25;16.25;;;;;21.84;41.48;101839.75;5077958;27;45576;-55
2021/09/23 01:03:44;;;;;;;;;16.75;16.25;;;;;21.83;41.48;101836.25;5077757;28;46410;-47
2021/09/23 01:06:10;;;;;;;;;15.75;15.75;;;;;21.82;41.78;101828.44;5078044;27;45223;-51
2021/09/23 01:08:39;;;;;;;;;17.75;15.75;;;;;21.82;41.41;101821.34;5077925;27;45232;-51
2021/09/23 01:11:04;;;;;;;;;13.00;13.00;;;;;21.81;41.47;101814.34;5078052;27;45437;-50
2021/09/23 01:13:30;;;;;;;;;15.50;14.25;;;;;21.81;41.63;101810.88;5077607;27;46736;-49
2021/09/23 01:15:56;;;;;;;;;18.75;14.00;;;;;21.80;41.82;101804.72;5077365;28;45317;-51
2021/09/23 01:18:22;;;;;;;;;17.75;15.75;;;;;21.81;41.48;101801.16;5077516;28;45390;-47
2021/09/23 01:20:47;;;;;;;;;17.00;13.50;;;;;21.79;41.48;101795.09;5077531;27;45371;-55
2021/09/23 01:23:13;;;;;;;;;14.50;14.50;;;;;21.81;41.48;101795.03;5077623;28;45461;-48
2021/09/23 01:25:38;;;;;;;;;12.75;12.00;;;;;21.81;41.59;101789.75;5076479;27;45323;-53
2021/09/23 01:28:05;;;;;;;;;13.75;13.25;;;;;21.79;41.31;101781.91;5077453;27;45220;-47
2021/09/23 01:30:30;;;;;;;;;14.25;12.00;;;;;21.78;41.69;101775.78;5077487;27;45599;-50
2021/09/23 01:32:55;;;;;;;;;13.25;12.00;;;;;21.78;41.43;101780.19;5077170;28;46623;-47
2021/09/23 01:35:21;;;;;;;;;14.50;11.50;;;;;21.77;41.64;101779.34;5077445;27;45243;-51
2021/09/23 01:37:46;;;;;;;;;13.50;11.00;;;;;21.77;41.27;101774.06;5077566;27;45408;-57
2021/09/23 01:40:12;;;;;;;;;14.75;12.75;;;;;21.76;41.78;101769.72;5077793;27;45438;-48
2021/09/23 01:42:41;;;;;;;;;14.50;13.00;;;;;21.77;41.49;101767.94;5077163;27;46331;-55
2021/09/23 01:45:06;;;;;;;;;14.75;12.75;;;;;21.77;41.50;101763.50;5077291;27;45923;-56
2021/09/23 01:47:32;;;;;;;;;13.50;12.00;;;;;21.77;41.80;101757.38;5077281;27;45177;-52
2021/09/23 01:49:58;;;;;;;;;13.50;12.25;;;;;21.76;41.44;101753.88;5077010;27;45348;-54
2021/09/23 01:52:24;;;;;;;;;13.25;12.00;;;;;21.77;41.36;101757.38;5076868;27;46577;-54
2021/09/23 01:54:49;;;;;;;;;15.25;10.75;;;;;21.77;42.02;101757.38;5076985;27;45405;-58
2021/09/23 01:57:15;;;;;;;;;11.75;11.75;;;;;21.75;41.63;101751.31;5077339;27;45236;-57
2021/09/23 01:59:41;;;;;;;;;12.50;11.75;;;;;21.75;41.46;101744.25;5077358;27;45423;-50
2021/09/23 02:02:06;;;;;;;;;14.25;14.00;;;;;21.75;41.46;101746.88;5092711;27;46138;-58
2021/09/23 02:04:31;;;;;;;;;13.00;11.75;;;;;21.76;41.53;101750.41;5076457;27;49671;-58
2021/09/23 02:06:57;;;;;;;;;9.50;8.25;;;;;21.75;41.39;101757.44;5092606;27;45322;-61
2021/09/23 02:09:22;;;;;;;;;14.25;11.75;;;;;21.76;41.50;101760.94;5077044;27;45285;-57
2021/09/23 02:11:47;;;;;;;;;13.50;13.50;;;;;21.75;41.64;101749.53;5076636;27;45415;-60
2021/09/23 02:14:13;;;;;;;;;17.75;13.50;;;;;21.74;41.48;101745.16;5076844;27;45259;-58
2021/09/23 02:16:38;;;;;;;;;14.00;13.25;;;;;21.75;41.46;101744.25;5076603;27;45346;-61
2021/09/23 02:19:04;;;;;;;;;14.50;14.50;;;;;21.75;41.63;101732.84;5076682;27;45594;-58
2021/09/23 02:21:29;;;;;;;;;17.25;14.75;;;;;21.74;41.38;101742.53;5076262;27;46293;-58
2021/09/23 02:23:55;;;;;;;;;18.00;16.50;;;;;21.74;41.79;101744.31;5076447;27;45402;-60
2021/09/23 02:26:20;;;;;;;;;13.25;12.75;;;;;21.73;41.45;101732.06;5076513;28;45386;-57
2021/09/23 02:28:46;;;;;;;;;14.00;13.50;;;;;21.74;41.51;101731.13;5077041;27;45327;-59
2021/09/23 02:31:11;;;;;;;;;18.75;14.00;;;;;21.74;41.72;101725.84;5076132;27;46137;-53
2021/09/23 02:33:36;;;;;;;;;15.00;13.25;;;;;21.74;41.55;101726.69;5076093;27;46181;-54
2021/09/23 02:36:03;;;;;;;;;17.25;15.25;;;;;21.74;41.42;101726.69;5092506;27;45911;-59
2021/09/23 02:38:28;;;;;;;;;15.75;15.25;;;;;21.72;41.49;101722.44;5080072;27;45499;-47
2021/09/23 02:40:55;;;;;;;;;18.00;15.75;;;;;21.74;41.77;101725.84;5079706;27;45293;-59
2021/09/23 02:43:20;;;;;;;;;13.50;11.00;;;;;21.72;41.43;101719.78;5079824;27;45199;-53
2021/09/23 02:45:46;;;;;;;;;16.25;16.00;;;;;21.73;41.85;101729.41;5080139;27;45177;-52
2021/09/23 02:48:11;;;;;;;;;16.75;14.50;;;;;21.73;41.53;101729.41;5079910;27;45537;-51
2021/09/23 02:50:36;;;;;;;;;15.75;12.25;;;;;21.72;41.53;101725.91;5079488;27;46464;-53
2021/09/23 02:53:02;;;;;;;;;17.25;11.25;;;;;21.73;41.68;101729.41;5079516;27;45351;-46
2021/09/23 02:55:27;;;;;;;;;16.25;14.25;;;;;21.71;41.85;101726.88;5079589;27;45865;-47
2021/09/23 02:57:52;;;;;;;;;13.00;9.00;;;;;21.70;41.56;101725.16;5079921;27;45260;-53
2021/09/23 03:00:19;;;;;;;;;17.00;15.25;;;;;21.71;41.83;101726.88;5079691;27;45430;-60
2021/09/23 03:02:44;;;;;;;;;15.25;13.00;;;;;21.72;41.69;101725.06;5079885;27;45362;-49
2021/09/23 03:05:10;;;;;;;;;17.00;13.25;;;;;21.71;41.53;101718.94;5079611;27;45750;-54
2021/09/23 03:07:35;;;;;;;;;18.25;15.50;;;;;21.70;41.79;101711.09;5095525;27;45411;-60
2021/09/23 03:10:01;;;;;;;;;13.25;12.75;;;;;21.70;41.70;101717.22;5079388;27;45416;-52
2021/09/23 03:12:26;;;;;;;;;16.75;15.00;;;;;21.70;41.55;101711.94;5079317;27;45254;-58
2021/09/23 03:14:51;;;;;;;;;17.25;16.25;;;;;21.70;41.61;101713.72;5079414;27;45323;-61
2021/09/23 03:17:16;;;;;;;;;16.00;13.25;;;;;21.68;41.67;101711.16;5079853;27;45260;-52
2021/09/23 03:19:42;;;;;;;;;16.25;13.00;;;;;21.69;42.03;101712.00;5079161;27;46464;-50
2021/09/23 03:22:07;;;;;;;;;16.50;16.50;;;;;21.68;41.81;101710.28;5079264;27;45295;-47
2021/09/23 03:24:33;;;;;;;;;18.25;15.25;;;;;21.68;41.87;101711.16;5079309;27;45295;-63
2021/09/23 03:26:58;;;;;;;;;16.25;14.00;;;;;21.69;41.91;101701.44;5079371;27;45314;-50
2021/09/23 03:29:24;;;;;;;;;10.75;10.75;;;;;21.68;41.88;101699.75;5094718;27;47112;-49
2021/09/23 03:31:49;;;;;;;;;14.00;14.00;;;;;21.67;42.18;101698.91;5079356;27;45360;-58
2021/09/23 03:34:15;;;;;;;;;11.25;11.25;;;;;21.66;42.03;101701.63;5079045;27;45866;-59
2021/09/23 03:36:40;;;;;;;;;16.50;12.75;;;;;21.65;42.30;101697.28;5079283;27;46005;-51
2021/09/23 03:39:06;;;;;;;;;15.50;13.50;;;;;21.67;42.18;101701.53;5078906;27;46454;-58
2021/09/23 03:41:32;;;;;;;;;16.50;15.00;;;;;21.64;42.36;101683.19;5078857;27;46140;-53
2021/09/23 03:43:58;;;;;;;;;11.25;11.25;;;;;21.66;42.05;101680.50;5094718;27;45450;-51
2021/09/23 03:46:23;;;;;;;;;15.50;11.00;;;;;21.63;41.96;101678.84;5079104;27;45470;-51
2021/09/23 03:48:48;;;;;;;;;11.50;11.50;;;;;21.66;42.09;101686.63;5077926;27;45529;-46
2021/09/23 03:51:14;;;;;;;;;12.00;12.00;;;;;21.66;42.30;101675.25;5078784;27;45379;-48
2021/09/23 03:53:41;;;;;;;;;15.50;12.50;;;;;21.65;42.51;101682.28;5078837;27;45449;-48
2021/09/23 03:56:07;;;;;;;;;19.00;15.25;;;;;21.65;42.29;101678.81;5094690;27;45280;-48
2021/09/23 03:58:33;;;;;;;;;14.75;13.50;;;;;21.64;42.65;101677.09;5078448;28;46572;-50
2021/09/23 04:00:59;;;;;;;;;15.25;15.25;;;;;21.64;42.53;101682.38;5078363;27;45462;-47
2021/09/23 04:03:24;;;;;;;;;13.25;12.25;;;;;21.65;42.38;101684.06;5094432;27;45407;-47
2021/09/23 04:05:50;;;;;;;;;13.50;12.50;;;;;21.63;42.84;101681.50;5079040;27;45518;-53
2021/09/23 04:08:16;;;;;;;;;16.50;13.75;;;;;21.62;42.90;101680.66;5078578;27;46169;-57
2021/09/23 04:10:41;;;;;;;;;18.75;17.25;;;;;21.62;42.75;101688.56;5078371;27;45356;-53
2021/09/23 04:13:07;;;;;;;;;15.50;13.25;;;;;21.62;42.69;101691.19;5078632;27;45811;-59
2021/09/23 04:15:32;;;;;;;;;14.75;14.50;;;;;21.62;42.82;101696.47;5078804;27;45809;-49
2021/09/23 04:17:57;;;;;;;;;15.00;13.25;;;;;21.61;42.92;101694.75;5078058;27;45551;-46
2021/09/23 04:20:23;;;;;;;;;13.25;13.25;;;;;21.60;43.01;101695.69;5078402;27;45336;-50
2021/09/23 04:22:49;;;;;;;;;11.50;11.50;;;;;21.60;43.01;101686.94;5094355;27;45460;-47
2021/09/23 04:25:15;;;;;;;;;14.50;14.50;;;;;21.59;42.79;101688.69;5078563;27;45403;-47
2021/09/23 04:27:40;;;;;;;;;16.25;12.75;;;;;21.58;43.13;101688.75;5078137;27;46793;-46
2021/09/23 04:30:06;;;;;;;;;14.00;12.25;;;;;21.57;42.99;101689.66;5078140;27;45314;-46
2021/09/23 04:32:32;;;;;;;;;14.50;13.00;;;;;21.59;43.33;101707.16;5078043;27;45343;-46
2021/09/23 04:34:57;;;;;;;;;14.00;13.00;;;;;21.58;42.94;101696.66;5078400;28;45620;-52
2021/09/23 04:37:22;;;;;;;;;14.25;13.00;;;;;21.57;43.26;101692.31;5078267;27;46270;-50
2021/09/23 04:39:48;;;;;;;;;13.75;11.50;;;;;21.55;43.08;101694.16;5077945;27;45313;-48
2021/09/23 04:42:13;;;;;;;;;13.00;12.00;;;;;21.55;42.96;101699.44;5078019;27;45230;-47
2021/09/23 04:44:38;;;;;;;;;14.00;13.50;;;;;21.55;43.18;101700.28;5078309;27;45587;-49
2021/09/23 04:47:04;;;;;;;;;14.50;14.50;;;;;21.54;43.21;101703.88;5077831;27;45317;-53
2021/09/23 04:49:31;;;;;;;;;13.50;12.00;;;;;21.57;43.25;101702.84;5077679;27;45426;-59
2021/09/23 04:51:56;;;;;;;;;12.50;11.75;;;;;21.53;42.90;101696.88;5078043;27;45468;-58
2021/09/23 04:54:22;;;;;;;;;20.50;17.75;;;;;21.54;43.38;101698.59;5078309;27;45655;-59
2021/09/23 04:56:47;;;;;;;;;13.00;12.25;;;;;21.53;43.08;101696.88;5077620;27;46640;-56
2021/09/23 04:59:13;;;;;;;;;15.00;11.50;;;;;21.52;42.90;101692.53;5077435;27;45378;-47
2021/09/23 05:01:38;;;;;;;;;13.25;11.75;;;;;21.52;42.98;101696.94;5077720;27;45336;-50
2021/09/23 05:04:04;;;;;;;;;12.50;11.00;;;;;21.50;42.99;101694.38;5077947;27;45312;-47
2021/09/23 05:06:29;;;;;;;;;16.75;14.25;;;;;21.52;43.14;101705.72;5077488;27;46112;-50
2021/09/23 05:08:54;;;;;;;;;14.25;10.75;;;;;21.50;43.26;101707.56;5077820;27;45259;-46
2021/09/23 05:11:20;;;;;;;;;13.50;12.75;;;;;21.49;43.14;101711.13;5077871;27;45453;-46
2021/09/23 05:13:45;;;;;;;;;15.00;13.75;;;;;21.50;42.93;101718.09;5078087;27;45368;-53
2021/09/23 05:16:10;;;;;;;;;14.00;11.75;;;;;21.49;43.09;101719.03;5077180;27;45339;-50
2021/09/23 05:18:36;;;;;;;;;13.75;12.25;;;;;21.49;43.26;101726.09;5077375;27;45450;-50
2021/09/23 05:21:01;;;;;;;;;12.75;12.75;;;;;21.48;43.24;101730.50;5077520;27;45355;-51
2021/09/23 05:23:27;;;;;;;;;12.75;12.75;;;;;21.46;43.33;101727.94;5077636;27;45643;-47
2021/09/23 05:25:52;;;;;;;;;12.75;11.50;;;;;21.45;43.42;101728.00;5077480;27;45314;-47
2021/09/23 05:28:17;;;;;;;;;17.50;14.00;;;;;21.43;43.34;101728.06;5077286;27;45207;-49
2021/09/23 05:30:43;;;;;;;;;12.00;12.00;;;;;21.43;43.10;101727.22;5075911;28;45411;-47
2021/09/23 05:33:08;;;;;;;;;12.75;12.75;;;;;21.42;43.17;101729.00;5077442;27;45477;-47
2021/09/23 05:35:35;;;;;;;;;12.50;11.00;;;;;21.42;43.47;101728.16;5076947;27;46976;-48
2021/09/23 05:38:00;;;;;;;;;11.50;11.50;;;;;21.42;43.31;101730.78;5077022;27;45258;-46
2021/09/23 05:40:26;;;;;;;;;13.75;10.00;;;;;21.42;43.13;101730.78;5093221;27;45617;-46
2021/09/23 05:42:51;;;;;;;;;18.00;12.50;;;;;21.41;42.98;101734.34;5077830;27;45612;-47
2021/09/23 05:45:17;;;;;;;;;15.50;12.50;;;;;21.41;43.00;101734.34;5076878;27;46136;-48
2021/09/23 05:47:43;;;;;;;;;8.75;8.75;;;;;21.40;43.05;101738.75;5077030;27;45330;-47
2021/09/23 05:50:10;;;;;;;;;12.00;12.00;;;;;21.40;43.29;101737.91;5077008;27;45319;-50
2021/09/23 05:52:36;;;;;;;;;14.75;12.25;;;;;21.39;43.57;101736.19;5075836;28;45406;-56
2021/09/23 05:55:03;;;;;;;;;11.50;11.50;;;;;21.39;43.24;101737.03;5076914;27;45484;-49
2021/09/23 05:57:35;;;;;;;;;14.25;13.00;;;;;21.40;43.56;101745.81;5076824;27;45313;-53
2021/09/23 06:00:13;;;;;;;;;12.50;12.50;;;;;21.39;43.02;101750.22;5075212;28;45478;-52
2021/09/23 06:02:39;;;;;;;;;12.25;12.00;;;;;21.37;43.21;101748.59;5077029;27;45334;-47
2021/09/23 06:05:05;;;;;;;;;14.75;13.75;;;;;21.38;43.51;101752.94;5076458;27;45510;-51
2021/09/23 06:07:31;;;;;;;;;13.00;12.00;;;;;21.38;43.65;101758.22;5076798;27;45353;-47
2021/09/23 06:09:56;;;;;;;;;13.75;13.75;;;;;21.37;43.65;101745.94;5077065;27;45342;-49
2021/09/23 06:12:22;;;;;;;;;13.50;13.50;;;;;21.36;43.47;101752.16;5076269;27;45353;-50
2021/09/23 06:14:47;;;;;;;;;16.00;14.00;;;;;21.35;43.57;101755.69;5076407;27;45497;-51
2021/09/23 06:17:14;;;;;;;;;14.50;13.50;;;;;21.33;43.04;101753.16;5076437;27;45439;-55
2021/09/23 06:19:40;;;;;;;;;13.50;13.00;;;;;21.35;43.57;101761.84;5075224;28;45378;-48
2021/09/23 06:22:05;;;;;;;;;15.00;14.50;;;;;21.36;43.33;101760.06;5076623;27;45723;-51
2021/09/23 06:24:30;;;;;;;;;15.50;13.25;;;;;21.35;43.64;101755.69;5076421;27;46488;-50
2021/09/23 06:26:56;;;;;;;;;12.50;12.50;;;;;21.35;43.59;101760.97;5076680;27;45346;-47
2021/09/23 06:29:21;;;;;;;;;12.75;12.75;;;;;21.35;43.54;101766.25;5076534;27;45340;-48
2021/09/23 06:31:47;;;;;;;;;16.00;13.50;;;;;21.35;43.63;101761.84;5076729;27;45370;-54
2021/09/23 06:34:12;;;;;;;;;12.00;12.00;;;;;21.33;43.50;101765.50;5076188;27;46259;-50
2021/09/23 06:36:38;;;;;;;;;13.50;13.00;;;;;21.33;43.66;101766.34;5076230;27;45354;-48
2021/09/23 06:39:05;;;;;;;;;12.00;11.00;;;;;21.34;43.56;101775.09;5076387;28;45253;-47
2021/09/23 06:41:31;;;;;;;;;12.00;11.00;;;;;21.34;43.47;101775.09;5076453;27;45553;-47
2021/09/23 06:43:59;;;;;;;;;14.75;12.50;;;;;21.34;43.48;101775.97;5076495;27;46341;-50
2021/09/23 06:46:26;;;;;;;;;15.25;14.25;;;;;21.33;43.55;101771.59;5076053;27;45400;-47
2021/09/23 06:48:52;;;;;;;;;12.75;11.50;;;;;21.34;43.38;101775.09;5076176;27;45269;-46
2021/09/23 06:51:17;;;;;;;;;14.25;12.50;;;;;21.35;43.24;101776.81;5076289;27;45209;-46
2021/09/23 06:53:43;;;;;;;;;14.25;11.75;;;;;21.34;43.26;101773.31;5075962;27;45487;-47
2021/09/23 06:56:08;;;;;;;;;15.50;12.25;;;;;21.35;43.55;101782.06;5076120;27;45357;-47
2021/09/23 06:58:33;;;;;;;;;13.00;11.50;;;;;21.34;43.29;101783.88;5076088;27;45389;-50
2021/09/23 07:00:58;;;;;;;;;13.75;13.75;;;;;21.34;43.45;101780.34;5076318;27;45541;-53
2021/09/23 07:03:24;;;;;;;;;15.25;14.75;;;;;21.33;43.38;101774.25;5075728;27;46659;-46
2021/09/23 07:05:49;;;;;;;;;12.50;12.00;;;;;21.34;43.40;101772.44;5075843;27;45363;-48
2021/09/23 07:08:18;;;;;;;;;13.00;12.50;;;;;21.33;43.67;101761.06;5075979;27;45155;-47
2021/09/23 07:10:45;;;;;;;;;12.00;10.75;;;;;21.35;43.41;101760.97;5076039;27;45541;-48
2021/09/23 07:13:11;;;;;;;;;13.00;13.00;;;;;21.36;43.36;101770.59;5075732;27;47397;-47
2021/09/23 07:15:36;;;;;;;;;14.00;12.00;;;;;21.36;43.64;101770.59;5075942;27;45411;-47
2021/09/23 07:18:02;;;;;;;;;13.50;13.50;;;;;21.34;43.27;101764.53;5075856;27;45333;-50
2021/09/23 07:20:27;;;;;;;;;13.75;9.25;;;;;21.35;43.25;101760.97;5076214;27;45560;-49
2021/09/23 07:22:52;;;;;;;;;10.25;10.00;;;;;21.36;43.28;101762.69;5075764;27;45441;-49
2021/09/23 07:25:23;;;;;;;;;14.50;13.50;;;;;21.37;43.38;101765.28;5079095;27;45338;-47
2021/09/23 07:27:48;;;;;;;;;11.75;11.25;;;;;21.38;43.06;101766.13;5077753;28;45428;-47
2021/09/23 07:30:14;;;;;;;;;13.00;12.00;;;;;21.39;43.22;101770.47;5079253;27;45408;-49
2021/09/23 07:32:39;;;;;;;;;14.50;14.50;;;;;21.39;43.36;101765.19;5078939;27;46797;-47
2021/09/23 07:35:05;;;;;;;;;13.50;12.75;;;;;21.37;43.10;101764.41;5078950;27;45283;-48
2021/09/23 07:37:32;;;;;;;;;12.75;12.00;;;;;21.37;43.25;101759.13;5079505;27;45395;-49
2021/09/23 07:39:58;;;;;;;;;16.50;14.25;;;;;21.36;42.98;101754.78;5094807;27;45503;-47
2021/09/23 07:42:23;;;;;;;;;17.00;14.50;;;;;21.37;43.48;101759.13;5078995;27;45602;-50
2021/09/23 07:44:54;;;;;;;;;16.75;15.75;;;;;21.36;43.47;101755.66;5079035;27;45263;-47
2021/09/23 07:47:20;;;;;;;;;16.75;16.00;;;;;21.34;43.37;101744.31;5078970;27;45272;-47
2021/09/23 07:49:45;;;;;;;;;18.25;16.75;;;;;21.36;43.34;101747.75;5079084;27;45425;-46
2021/09/23 07:52:11;;;;;;;;;16.50;15.75;;;;;21.37;43.56;101754.75;5078592;27;46195;-47
2021/09/23 07:54:36;;;;;;;;;19.25;15.75;;;;;21.36;43.52;101749.50;5078600;27;45462;-47
2021/09/23 07:57:02;;;;;;;;;14.00;12.50;;;;;21.37;43.45;101744.19;5094845;27;45362;-48
2021/09/23 07:59:28;;;;;;;;;15.25;13.00;;;;;21.37;43.48;101748.59;5077369;28;45687;-47
2021/09/23 08:01:54;;;;;;;;;16.75;15.50;;;;;21.40;43.59;101751.09;5078608;27;46319;-48
2021/09/23 08:04:19;;;;;;;;;18.50;15.25;;;;;21.40;43.83;101756.38;5078530;27;45252;-46
2021/09/23 08:06:44;;;;;;;;;17.00;16.50;;;;;21.40;43.58;101748.47;5077383;28;45261;-48
2021/09/23 08:09:10;;;;;;;;;15.50;13.75;;;;;21.39;43.32;101747.59;5078651;27;45223;-47
2021/09/23 08:11:35;;;;;;;;;17.75;15.00;;;;;21.41;43.43;101750.19;5078391;27;46577;-49
2021/09/23 08:14:00;;;;;;;;;19.50;14.75;;;;;21.41;43.68;101747.53;5078709;27;45346;-49
2021/09/23 08:16:26;;;;;;;;;19.25;18.00;;;;;21.42;43.70;101751.88;5078619;27;45419;-47
2021/09/23 08:18:51;;;;;;;;;17.25;17.25;;;;;21.40;43.16;101743.19;5078490;27;45181;-47
2021/09/23 08:21:16;;;;;;;;;16.50;15.00;;;;;21.40;43.45;101749.31;5078107;27;45767;-51
2021/09/23 08:23:42;;;;;;;;;18.50;13.75;;;;;21.43;43.41;101756.25;5078237;27;45708;-49
2021/09/23 08:26:07;;;;;;;;;15.50;14.50;;;;;21.41;43.61;101744.91;5078346;28;45414;-50
2021/09/23 08:28:35;;;;;;;;;17.25;16.25;;;;;21.43;43.24;101748.34;5078709;28;45401;-48
2021/09/23 08:31:01;;;;;;;;;17.50;16.00;;;;;21.47;43.34;101747.25;5078266;27;45338;-46
2021/09/23 08:33:26;;;;;;;;;16.25;13.25;;;;;21.43;43.35;101736.00;5078163;28;45503;-53
2021/09/23 08:35:51;;;;;;;;;19.50;19.25;;;;;21.46;43.65;101733.22;5077745;27;45511;-46
2021/09/23 08:38:19;;;;;;;;;18.00;16.25;;;;;21.47;43.30;101740.22;5078124;27;45329;-47
2021/09/23 08:40:47;;;;;;;;;13.00;13.00;;;;;21.49;43.25;101742.75;5077932;27;47343;-50
2021/09/23 08:43:13;;;;;;;;;17.00;17.00;;;;;21.50;43.17;101751.56;5077868;27;46117;-52
2021/09/23 08:45:39;;;;;;;;;15.00;14.50;;;;;21.50;43.10;101754.19;5078003;27;45437;-52
2021/09/23 08:48:05;;;;;;;;;17.25;16.50;;;;;21.50;43.26;101743.63;5078482;27;45324;-47
2021/09/23 08:50:30;;;;;;;;;15.00;15.00;;;;;21.51;43.05;101745.31;5077741;27;45390;-53
2021/09/23 08:52:56;;;;;;;;;19.25;15.25;;;;;21.51;42.95;101751.47;5077748;27;45408;-55
2021/09/23 08:55:28;;;;;;;;;18.75;15.75;;;;;21.51;42.89;101751.47;5076673;28;45401;-53
2021/09/23 08:57:54;;;;;;;;;16.00;13.50;;;;;21.53;43.29;101749.63;5078131;27;45489;-56
2021/09/23 09:00:21;;;;;;;;;16.75;16.75;;;;;21.52;42.66;101753.19;5077353;27;46538;-58
2021/09/23 09:03:10;;;;;;;;;16.00;15.75;;;;;21.54;42.56;101753.09;5077560;27;46309;-53
2021/09/23 09:05:39;;;;;;;;;14.00;14.00;;;;;21.53;42.46;101757.53;5078015;27;45340;-55
2021/09/23 09:08:10;;;;;;;;;13.50;13.50;;;;;21.54;42.76;101755.75;5078210;27;45520;-56
2021/09/23 09:10:37;;;;;;;;;15.50;11.50;;;;;21.54;42.80;101755.75;5077524;27;46145;-56
2021/09/23 09:13:04;;;;;;;;;17.00;14.50;;;;;21.52;43.11;101754.94;5077846;28;45884;-53
2021/09/23 09:15:38;;;;;;;;;17.50;14.25;;;;;21.55;42.64;101758.31;5093305;27;45468;-60
2021/09/23 09:18:19;;;;;;;;;16.00;12.00;;;;;21.57;42.74;101766.16;5076678;28;45644;-54
2021/09/23 09:20:56;;;;;;;;;12.50;11.25;;;;;21.54;42.49;101756.63;5077257;27;46270;-57
2021/09/23 09:23:23;;;;;;;;;12.50;11.75;;;;;21.57;42.36;101756.47;5077425;27;45490;-58
2021/09/23 09:25:49;;;;;;;;;14.50;13.25;;;;;21.57;42.60;101759.09;5077525;28;45672;-50
2021/09/23 09:28:18;;;;;;;;;16.00;14.75;;;;;21.58;42.56;101752.06;5076110;28;45512;-51
2021/09/23 09:30:44;;;;;;;;;13.00;11.00;;;;;21.57;42.62;101751.19;5077110;27;46199;-48
2021/09/23 09:33:11;;;;;;;;;13.50;13.50;;;;;21.58;42.47;101752.91;5092824;27;45800;-50
2021/09/23 09:35:37;;;;;;;;;11.00;10.50;;;;;21.59;42.20;101762.56;5077851;27;45314;-47
2021/09/23 09:38:05;;;;;;;;;15.00;11.50;;;;;21.61;42.60;101749.28;5077584;27;45549;-47
2021/09/23 09:40:34;;;;;;;;;12.00;11.00;;;;;21.61;42.13;101760.72;5092532;27;47899;-57
2021/09/23 09:43:06;;;;;;;;;12.00;11.00;;;;;21.61;42.46;101752.78;5077015;27;45877;-52
2021/09/23 09:45:33;;;;;;;;;13.75;11.75;;;;;21.61;42.45;101747.53;5076522;27;45354;-49
2021/09/23 09:47:59;;;;;;;;;15.75;10.75;;;;;21.61;42.05;101742.25;5092586;27;45654;-47
2021/09/23 09:50:30;;;;;;;;;11.00;11.00;;;;;21.62;42.24;101741.31;5076862;27;46085;-50
2021/09/23 09:53:05;;;;;;;;;13.75;10.25;;;;;21.63;42.19;101739.53;5076906;27;45325;-47
2021/09/23 09:55:36;;;;;;;;;10.25;10.25;;;;;21.64;42.46;101735.97;5076980;27;45413;-47
2021/09/23 09:58:03;;;;;;;;;10.25;10.25;;;;;21.65;42.36;101734.19;5075950;28;45591;-50
2021/09/23 10:00:31;;;;;;;;;13.50;9.00;;;;;21.65;42.24;101724.50;5076424;27;46252;-47
2021/09/23 10:02:56;;;;;;;;;13.25;11.25;;;;;21.67;42.34;101735.84;5075301;28;45421;-48
2021/09/23 10:05:23;;;;;;;;;10.75;8.50;;;;;21.66;41.98;101728.00;5076928;28;45335;-49
2021/09/23 10:07:51;;;;;;;;;10.00;9.50;;;;;21.67;42.31;101732.31;5076887;27;45428;-54
2021/09/23 10:10:20;;;;;;;;;10.00;10.00;;;;;21.67;42.25;101733.19;5076670;27;45301;-51
2021/09/23 10:12:47;;;;;;;;;12.75;10.25;;;;;21.68;42.07;101732.28;5076605;27;45409;-47
2021/09/23 10:15:15;;;;;;;;;11.75;9.50;;;;;21.66;42.19;101720.94;5076709;27;45267;-47
2021/09/23 10:17:42;;;;;;;;;9.00;9.00;;;;;21.70;42.17;101724.28;5076808;27;45304;-47
2021/09/23 10:20:08;;;;;;;;;12.00;12.00;;;;;21.70;42.13;101726.91;5076687;27;45529;-47
2021/09/23 10:22:33;;;;;;;;;11.25;11.00;;;;;21.68;42.07;101720.84;5076588;27;45883;-51
2021/09/23 10:25:02;;;;;;;;;10.50;9.00;;;;;21.70;42.29;101724.28;5076619;27;45323;-51
2021/09/23 10:30:13;;;;;;;;;13.50;12.25;;;;;21.71;42.36;101720.72;5076353;28;45264;-48
2021/09/23 10:32:40;;;;;;;;;11.50;10.75;;;;;21.71;42.43;101715.44;5092498;27;45200;-53
2021/09/23 10:35:06;;;;;;;;;12.00;11.75;;;;;21.71;42.09;101715.44;5076422;28;45440;-52
2021/09/23 10:37:32;;;;;;;;;14.00;11.50;;;;;21.74;42.27;101720.56;5076525;27;45218;-49
2021/09/23 10:39:59;;;;;;;;;12.50;10.75;;;;;21.74;42.26;101710.88;5075944;27;46199;-48
2021/09/23 10:42:24;;;;;;;;;10.25;10.00;;;;;21.75;42.32;101704.66;5076341;27;45481;-47
2021/09/23 10:44:52;;;;;;;;;11.25;11.00;;;;;21.75;41.99;101698.53;5076424;28;45417;-51
2021/09/23 10:47:34;;;;;;;;;12.75;10.00;;;;;21.77;42.25;101694.91;5076378;27;45377;-50
2021/09/23 10:50:02;;;;;;;;;11.00;11.00;;;;;21.76;42.02;101693.19;5091689;27;46547;-53
2021/09/23 10:52:31;;;;;;;;;13.50;10.75;;;;;21.78;42.08;101693.09;5076173;27;45250;-53
2021/09/23 10:55:01;;;;;;;;;11.50;11.50;;;;;21.77;41.93;101686.97;5076231;28;45398;-47
2021/09/23 10:57:29;;;;;;;;;9.50;9.50;;;;;21.78;41.83;101686.06;5077177;27;45421;-50
2021/09/23 10:59:59;;;;;;;;;12.00;11.50;;;;;21.79;42.23;101678.97;5079164;27;45467;-47
2021/09/23 11:02:30;;;;;;;;;9.50;9.50;;;;;21.78;41.96;101675.50;5079673;27;45346;-51
2021/09/23 11:04:57;;;;;;;;;11.00;11.00;;;;;21.80;42.14;101678.06;5079724;27;45255;-51
2021/09/23 11:07:24;;;;;;;;;15.50;11.25;;;;;21.81;41.83;101669.22;5079969;28;45603;-48